Airfield :
LOGIN :

Register | Disclaimer

   EN    FR    IT 

 










Legend :    VFR   Marginal VFR   IFR   Intensive IFR   Very Intensive IFR
Visi :
Ceiling :
>= 8 km
>= 3000ft
5 to 8 km
1000 to 3000 ft
1500m to 5 km
500 to 1000 ft
800 to 1500m
200 to 500 ft
< 800m
< 200 ft
Symbols :   Thunderstorms  Fog  Heavy snow  Heavy precipitations  Wind > 20 kt
SIGMETs :     Misc.  Thunderstorms  Icing  Turbulence  Mountain Waves  Volcanic Ashes







- Airport Elevation : 1273 ft
- IATA code : LJU


LJLJ - Ljubljana

CURRENT METAR :
  • 252130Z VRB01KT 9999 SCT085 12/09 Q1020 NOSIG

EXPIRED METARs :
  • 252100Z VRB01KT 9999 FEW050 SCT090 13/09 Q1020 NOSIG
  • 252030Z 08004KT 9999 FEW050 SCT090 14/09 Q1020 NOSIG
  • 252000Z 20005KT 9999 FEW046 SCT090 14/08 Q1019 NOSIG
  • 251930Z VRB02KT 9999 FEW046 SCT090 15/09 Q1019 NOSIG
  • 251900Z 12003KT 100V160 9999 FEW046 SCT092 16/09 Q1018 NOSIG

TAF TAF LJLJ
Valid from the 25 at 21:00 until the 26 at 21:00 UTC


252000Z 2521/2621 29003KT 9999 FEW050
BECMG 2609/2612 12005KT
BECMG 2618/2619 29002KT
No reported NOTAMs for that airfield.



MET'MAP, your aeronautical weather chart ! - Copyright ORBIFLY December 2007 - Disclaimer

ORBIFLY MET'MAP TEAM :

Programming & Development : Alexandra Zaïnal
Concept & Development : Baudouin d'Aumeries
Co-Development & Prog : Marc-Olivier Méhu
Technical & hardware support : Manuel Goepfert

Contact : metmap@orbifly.com




SOURCES & CREDITS :

   NOAA